createdAt,value
2023-03-30T00:00:55.936Z,10.60
2023-03-30T00:03:23.353Z,10.60
2023-03-30T00:05:51.944Z,10.60
2023-03-30T00:08:19.023Z,10.60
2023-03-30T00:10:47.708Z,10.90
2023-03-30T00:13:14.778Z,11.00
2023-03-30T00:15:41.588Z,11.00
2023-03-30T00:18:09.217Z,10.90
2023-03-30T00:20:37.517Z,10.70
2023-03-30T00:23:04.605Z,10.70
2023-03-30T00:25:31.344Z,10.90
2023-03-30T00:27:58.043Z,11.00
2023-03-30T00:30:25.005Z,11.00
2023-03-30T00:32:51.875Z,10.90
2023-03-30T00:35:19.525Z,10.80
2023-03-30T00:37:49.372Z,10.70
2023-03-30T00:40:20.433Z,10.80
2023-03-30T00:42:48.373Z,10.80
2023-03-30T00:45:28.819Z,10.80
2023-03-30T00:48:11.804Z,10.90
2023-03-30T00:50:45.904Z,11.00
2023-03-30T00:53:24.339Z,11.00
2023-03-30T00:55:53.037Z,11.10
2023-03-30T00:58:22.276Z,11.10
2023-03-30T01:00:49.090Z,11.00
2023-03-30T01:03:30.463Z,11.20
2023-03-30T01:05:59.845Z,11.10
2023-03-30T01:08:32.327Z,11.10
2023-03-30T01:11:01.452Z,11.20
2023-03-30T01:13:30.560Z,11.10
2023-03-30T01:16:06.257Z,11.10
2023-03-30T01:18:42.671Z,11.10
2023-03-30T01:21:28.114Z,11.10
2023-03-30T01:24:20.121Z,11.20
2023-03-30T01:27:14.820Z,11.20
2023-03-30T01:29:52.027Z,11.20
2023-03-30T01:32:52.638Z,11.30
2023-03-30T01:35:31.637Z,11.40
2023-03-30T01:37:58.369Z,11.40
2023-03-30T01:40:34.242Z,11.40
2023-03-30T01:43:06.148Z,11.50
2023-03-30T01:45:43.390Z,11.50
2023-03-30T01:48:18.288Z,11.50
2023-03-30T01:50:53.627Z,11.50
2023-03-30T01:53:32.831Z,11.50
2023-03-30T01:56:07.937Z,11.40
2023-03-30T01:58:53.548Z,11.40
2023-03-30T02:01:21.364Z,11.60
2023-03-30T02:03:54.586Z,11.70
2023-03-30T02:06:28.921Z,11.80
2023-03-30T02:08:59.194Z,11.80
2023-03-30T02:11:28.801Z,11.90
2023-03-30T02:13:58.576Z,11.90
2023-03-30T02:16:34.249Z,12.00
2023-03-30T02:19:01.611Z,12.00
2023-03-30T02:21:29.924Z,12.10
2023-03-30T02:23:58.784Z,12.20
2023-03-30T02:26:27.213Z,12.20
2023-03-30T02:28:54.137Z,12.20
2023-03-30T02:31:21.186Z,12.20
2023-03-30T02:34:22.684Z,12.20
2023-03-30T02:37:08.069Z,12.30
2023-03-30T02:39:47.964Z,12.50
2023-03-30T02:42:26.512Z,12.60
2023-03-30T02:45:11.342Z,12.60
2023-03-30T02:48:09.888Z,12.60
2023-03-30T02:51:16.734Z,12.70
2023-03-30T02:54:23.170Z,12.70
2023-03-30T02:57:40.119Z,12.70
2023-03-30T03:00:49.178Z,12.70
2023-03-30T03:03:31.641Z,12.60
2023-03-30T03:06:02.547Z,12.60
2023-03-30T03:08:39.642Z,12.60
2023-03-30T03:11:08.729Z,12.60
2023-03-30T03:13:37.166Z,12.50
2023-03-30T03:16:06.106Z,12.50
2023-03-30T03:18:32.812Z,12.60
2023-03-30T03:20:59.638Z,12.50
2023-03-30T03:23:26.619Z,12.50
2023-03-30T03:25:55.978Z,12.50
2023-03-30T03:28:23.254Z,12.50
2023-03-30T03:30:59.692Z,12.60
2023-03-30T03:33:27.428Z,12.60
2023-03-30T03:36:16.324Z,12.70
2023-03-30T03:38:48.417Z,12.70
2023-03-30T03:41:16.247Z,12.80
2023-03-30T03:43:43.547Z,12.80
2023-03-30T03:46:10.790Z,12.80
2023-03-30T03:48:39.299Z,12.80
2023-03-30T03:51:06.371Z,12.80
2023-03-30T03:53:35.508Z,12.90
2023-03-30T03:56:06.190Z,12.90
2023-03-30T03:58:33.794Z,12.90
2023-03-30T04:01:02.388Z,12.90
2023-03-30T04:03:29.458Z,12.80
2023-03-30T04:06:00.124Z,12.70
2023-03-30T04:08:28.441Z,12.80
2023-03-30T04:11:08.008Z,12.80
2023-03-30T04:13:53.444Z,12.70
2023-03-30T04:16:35.050Z,12.60
2023-03-30T04:19:25.174Z,12.50
2023-03-30T04:21:59.490Z,12.50
2023-03-30T04:24:59.098Z,12.40
2023-03-30T04:27:56.651Z,12.40
2023-03-30T04:30:41.034Z,12.40
2023-03-30T04:33:41.129Z,12.30
2023-03-30T04:36:23.186Z,12.40
2023-03-30T04:39:03.241Z,12.40
2023-03-30T04:41:51.086Z,12.40
2023-03-30T04:44:27.543Z,12.50
2023-03-30T04:47:09.782Z,12.40
2023-03-30T04:50:03.142Z,12.30
2023-03-30T04:52:48.715Z,12.30
2023-03-30T04:55:49.720Z,12.20
2023-03-30T04:58:31.281Z,12.10
2023-03-30T05:01:27.340Z,12.00
2023-03-30T05:04:18.926Z,12.10
2023-03-30T05:07:04.683Z,12.00
2023-03-30T05:09:43.233Z,11.90
2023-03-30T05:12:28.722Z,11.90
2023-03-30T05:15:06.465Z,11.80
2023-03-30T05:17:47.712Z,11.90
2023-03-30T05:20:27.078Z,12.00
2023-03-30T05:23:12.359Z,12.30
2023-03-30T05:25:51.286Z,12.70
2023-03-30T05:28:35.969Z,12.90
2023-03-30T05:31:34.907Z,13.20
2023-03-30T05:34:14.493Z,13.60
2023-03-30T05:36:41.093Z,13.80
2023-03-30T05:39:31.295Z,13.80
2023-03-30T05:42:18.113Z,13.80
2023-03-30T05:45:03.036Z,13.80
2023-03-30T05:47:48.632Z,13.80
2023-03-30T05:50:33.805Z,13.70
2023-03-30T05:53:04.389Z,13.70
2023-03-30T05:56:01.024Z,13.60
2023-03-30T05:58:51.509Z,13.70
2023-03-30T06:01:42.069Z,13.70
2023-03-30T06:04:08.836Z,13.70
2023-03-30T06:06:36.900Z,13.60
2023-03-30T06:09:04.493Z,13.60
2023-03-30T06:11:36.859Z,13.50
2023-03-30T06:14:17.197Z,13.50
2023-03-30T06:16:53.779Z,13.40
2023-03-30T06:19:20.669Z,13.50
2023-03-30T06:21:47.643Z,13.50
2023-03-30T06:24:25.631Z,13.50
2023-03-30T06:26:52.723Z,13.50
2023-03-30T06:29:20.088Z,13.50
2023-03-30T06:31:47.892Z,13.50
2023-03-30T06:34:40.396Z,13.50
2023-03-30T06:37:08.736Z,13.50
2023-03-30T06:39:37.775Z,13.50
2023-03-30T06:42:06.322Z,13.50
2023-03-30T06:44:46.610Z,13.50
2023-03-30T06:47:15.201Z,13.70
2023-03-30T06:49:42.766Z,13.80
2023-03-30T06:52:13.513Z,13.80
2023-03-30T06:54:41.105Z,13.70
2023-03-30T06:57:08.711Z,13.70
2023-03-30T06:59:35.785Z,13.70
2023-03-30T07:02:20.949Z,13.80
2023-03-30T07:04:53.650Z,13.90
2023-03-30T07:07:26.646Z,14.00
2023-03-30T07:09:53.550Z,14.10
2023-03-30T07:12:21.227Z,14.20
2023-03-30T07:14:48.599Z,14.20
2023-03-30T07:17:16.298Z,14.30
2023-03-30T07:19:43.168Z,14.40
2023-03-30T07:22:10.168Z,14.50
2023-03-30T07:24:36.933Z,14.60
2023-03-30T07:27:04.087Z,14.60
2023-03-30T07:29:32.407Z,14.60
2023-03-30T07:31:59.217Z,14.70
2023-03-30T07:34:26.614Z,14.70
2023-03-30T07:36:56.630Z,14.70
2023-03-30T07:39:27.971Z,14.80
2023-03-30T07:41:55.053Z,14.70
2023-03-30T07:44:22.646Z,14.70
2023-03-30T07:46:49.326Z,14.70
2023-03-30T07:49:22.763Z,14.70
2023-03-30T07:51:49.803Z,14.70
2023-03-30T07:54:23.665Z,14.80
2023-03-30T07:57:00.659Z,15.00
2023-03-30T07:59:27.439Z,15.10
2023-03-30T08:01:58.810Z,15.00
2023-03-30T08:04:52.915Z,15.10
2023-03-30T08:07:30.118Z,15.10
2023-03-30T08:10:08.026Z,15.20
2023-03-30T08:12:34.712Z,15.20
2023-03-30T08:15:02.089Z,15.30
2023-03-30T08:17:28.832Z,15.30
2023-03-30T08:19:58.501Z,15.30
2023-03-30T08:22:25.309Z,15.20
2023-03-30T08:24:51.986Z,15.30
2023-03-30T08:27:18.650Z,15.30
2023-03-30T08:29:45.744Z,15.30
2023-03-30T08:32:12.355Z,15.40
2023-03-30T08:34:39.280Z,15.50
2023-03-30T08:37:06.187Z,15.60
2023-03-30T08:39:33.204Z,15.70
2023-03-30T08:42:07.680Z,15.80
2023-03-30T08:44:38.673Z,15.70
2023-03-30T08:47:16.091Z,15.60
2023-03-30T08:49:51.545Z,15.50
2023-03-30T08:52:23.965Z,15.40
2023-03-30T08:54:52.391Z,15.10
2023-03-30T08:57:46.858Z,14.50
2023-03-30T09:00:57.048Z,14.10
2023-03-30T09:03:51.697Z,13.70
2023-03-30T09:06:30.296Z,13.70
2023-03-30T09:08:57.218Z,13.80
2023-03-30T09:11:34.655Z,13.80
2023-03-30T09:14:04.765Z,13.90
2023-03-30T09:16:40.634Z,13.90
2023-03-30T09:19:16.383Z,14.00
2023-03-30T09:21:43.907Z,14.20
2023-03-30T09:24:15.933Z,14.40
2023-03-30T09:26:54.738Z,14.60
2023-03-30T09:29:31.781Z,14.80
2023-03-30T09:32:09.867Z,14.40
2023-03-30T09:34:46.718Z,14.10
2023-03-30T09:37:21.327Z,13.80
2023-03-30T09:39:49.217Z,13.60
2023-03-30T09:42:47.978Z,13.50
2023-03-30T09:45:22.289Z,13.50
2023-03-30T09:47:48.991Z,13.40
2023-03-30T09:50:26.693Z,13.00
2023-03-30T09:53:01.885Z,12.50
2023-03-30T09:55:31.542Z,12.00
2023-03-30T09:58:12.491Z,11.70
2023-03-30T10:00:39.388Z,11.50
2023-03-30T10:03:08.055Z,11.40
2023-03-30T10:05:36.365Z,11.50
2023-03-30T10:08:19.569Z,11.60
2023-03-30T10:10:52.720Z,11.70
2023-03-30T10:13:20.713Z,11.80
2023-03-30T10:16:25.876Z,11.80
2023-03-30T10:18:57.561Z,12.00
2023-03-30T10:21:27.434Z,12.20
2023-03-30T10:24:22.803Z,12.30
2023-03-30T10:27:09.655Z,12.90
2023-03-30T10:29:36.353Z,13.00
2023-03-30T10:32:11.961Z,13.00
2023-03-30T10:34:42.370Z,13.10
2023-03-30T10:37:33.163Z,13.60
2023-03-30T10:40:05.168Z,14.10
2023-03-30T10:42:33.446Z,14.30
2023-03-30T10:45:04.193Z,14.10
2023-03-30T10:47:36.546Z,14.40
2023-03-30T10:50:21.724Z,14.40
2023-03-30T10:52:59.126Z,14.20
2023-03-30T10:55:59.343Z,14.40
2023-03-30T10:58:46.213Z,14.70
2023-03-30T11:01:39.696Z,15.00
2023-03-30T11:04:23.171Z,15.20
2023-03-30T11:06:55.682Z,15.70
2023-03-30T11:09:28.991Z,15.80
2023-03-30T11:12:01.448Z,16.00
2023-03-30T11:14:49.322Z,16.20
2023-03-30T11:17:38.457Z,15.70
2023-03-30T11:20:28.715Z,15.60
2023-03-30T11:23:33.336Z,16.00
2023-03-30T11:26:08.472Z,16.30
2023-03-30T11:28:47.505Z,16.30
2023-03-30T11:31:40.048Z,16.80
2023-03-30T11:34:45.634Z,17.00
2023-03-30T11:38:00.035Z,16.60
2023-03-30T11:40:46.260Z,16.70
2023-03-30T11:43:15.280Z,16.40
2023-03-30T11:46:13.926Z,16.10
2023-03-30T11:49:01.414Z,16.60
2023-03-30T11:51:43.135Z,16.20
2023-03-30T11:54:34.215Z,15.40
2023-03-30T11:57:16.241Z,15.40
2023-03-30T12:00:10.785Z,15.10
2023-03-30T12:02:56.532Z,14.70
2023-03-30T12:05:38.305Z,14.60
2023-03-30T12:08:19.084Z,14.60
2023-03-30T12:10:51.113Z,14.70
2023-03-30T12:13:19.775Z,14.60
2023-03-30T12:16:05.588Z,14.70
2023-03-30T12:18:43.151Z,14.80
2023-03-30T12:21:33.278Z,14.70
2023-03-30T12:24:24.964Z,14.50
2023-03-30T12:32:28.763Z,13.60
2023-03-30T12:34:57.865Z,13.90
2023-03-30T12:37:33.374Z,14.70
2023-03-30T12:40:12.287Z,15.30
2023-03-30T12:42:46.295Z,15.80
2023-03-30T12:45:22.709Z,15.80
2023-03-30T12:47:49.366Z,16.40
2023-03-30T12:50:31.847Z,16.40
2023-03-30T12:53:07.056Z,17.00
2023-03-30T12:55:59.919Z,16.80
2023-03-30T12:58:48.338Z,15.60
2023-03-30T13:01:18.048Z,14.90
2023-03-30T13:03:53.875Z,14.30
2023-03-30T13:06:28.414Z,14.30
2023-03-30T13:09:02.191Z,14.00
2023-03-30T13:11:46.884Z,13.80
2023-03-30T13:14:33.997Z,13.60
2023-03-30T13:17:03.428Z,13.70
2023-03-30T13:19:33.230Z,13.80
2023-03-30T13:22:12.044Z,14.10
2023-03-30T13:24:41.815Z,15.10
2023-03-30T13:27:14.435Z,15.50
2023-03-30T13:29:42.498Z,16.10
2023-03-30T13:32:35.238Z,16.40
2023-03-30T13:35:37.745Z,15.80
2023-03-30T13:38:34.447Z,16.60
2023-03-30T13:41:05.421Z,16.70
2023-03-30T13:43:42.820Z,16.50
2023-03-30T13:46:32.765Z,16.70
2023-03-30T13:49:13.808Z,16.50
2023-03-30T13:51:42.428Z,16.70
2023-03-30T13:54:29.244Z,17.00
2023-03-30T13:57:01.753Z,16.40
2023-03-30T13:59:32.504Z,16.50
2023-03-30T14:02:01.411Z,17.00
2023-03-30T14:04:33.401Z,17.10
2023-03-30T14:07:13.884Z,17.30
2023-03-30T14:09:40.513Z,17.60
2023-03-30T14:12:07.635Z,17.60
2023-03-30T14:14:38.081Z,17.00
2023-03-30T14:17:21.886Z,16.10
2023-03-30T14:20:15.238Z,15.60
2023-03-30T14:22:45.917Z,15.20
2023-03-30T14:25:32.391Z,15.20
2023-03-30T14:28:11.202Z,15.90
2023-03-30T14:30:37.929Z,16.50
2023-03-30T14:33:09.160Z,16.30
2023-03-30T14:35:44.763Z,15.70
2023-03-30T14:38:22.426Z,15.60
2023-03-30T14:40:50.602Z,15.30
2023-03-30T14:43:24.476Z,15.10
2023-03-30T14:45:57.272Z,15.00
2023-03-30T14:48:29.729Z,14.80
2023-03-30T14:50:56.877Z,14.80
2023-03-30T14:53:26.436Z,14.90
2023-03-30T14:55:56.955Z,14.90
2023-03-30T14:58:26.172Z,14.80
2023-03-30T15:01:01.120Z,15.00
2023-03-30T15:03:34.320Z,15.00
2023-03-30T15:06:06.751Z,15.00
2023-03-30T15:08:40.784Z,15.00
2023-03-30T15:11:16.709Z,15.00
2023-03-30T15:13:57.653Z,14.80
2023-03-30T15:16:29.007Z,14.60
2023-03-30T15:19:14.234Z,14.60
2023-03-30T15:21:41.097Z,14.50
2023-03-30T15:24:09.428Z,14.40
2023-03-30T15:26:41.729Z,13.30
2023-03-30T15:29:10.420Z,12.90
2023-03-30T15:31:37.189Z,13.00
2023-03-30T15:34:13.730Z,13.20
2023-03-30T15:36:40.917Z,13.50
2023-03-30T15:39:23.491Z,13.70
2023-03-30T15:41:50.339Z,13.70
2023-03-30T15:44:19.898Z,13.70
2023-03-30T15:46:49.602Z,13.70
2023-03-30T15:49:20.269Z,13.60
2023-03-30T15:51:53.423Z,13.40
2023-03-30T15:54:26.732Z,13.00
2023-03-30T15:57:13.224Z,12.70
2023-03-30T15:59:56.328Z,12.60
2023-03-30T16:02:32.262Z,12.30
2023-03-30T16:05:01.003Z,12.20
2023-03-30T16:07:31.947Z,12.20
2023-03-30T16:09:58.678Z,12.20
2023-03-30T16:12:29.837Z,12.10
2023-03-30T16:14:58.068Z,12.10
2023-03-30T16:17:24.707Z,12.10
2023-03-30T16:19:51.342Z,12.10
2023-03-30T16:22:18.053Z,12.10
2023-03-30T16:24:44.689Z,12.10
2023-03-30T16:27:12.271Z,12.10
2023-03-30T16:29:39.040Z,12.20
2023-03-30T16:32:05.968Z,12.30
2023-03-30T16:34:32.640Z,12.40
2023-03-30T16:36:59.246Z,12.40
2023-03-30T16:39:28.139Z,12.50
2023-03-30T16:41:55.929Z,12.70
2023-03-30T16:44:24.350Z,12.80
2023-03-30T16:46:52.369Z,12.90
2023-03-30T16:49:24.584Z,13.10
2023-03-30T16:51:53.700Z,13.20
2023-03-30T16:54:31.059Z,13.10
2023-03-30T16:56:59.909Z,13.10
2023-03-30T16:59:30.101Z,13.20
2023-03-30T17:01:56.948Z,13.20
2023-03-30T17:04:23.611Z,13.20
2023-03-30T17:06:50.450Z,13.10
2023-03-30T17:09:19.005Z,13.10
2023-03-30T17:11:47.334Z,13.10
2023-03-30T17:14:14.642Z,13.00
2023-03-30T17:16:41.314Z,12.80
2023-03-30T17:19:13.453Z,12.70
2023-03-30T17:21:42.675Z,12.60
2023-03-30T17:24:14.990Z,12.60
2023-03-30T17:26:41.875Z,12.60
2023-03-30T17:29:09.789Z,12.50
2023-03-30T17:31:38.161Z,12.60
2023-03-30T17:34:06.631Z,12.60
2023-03-30T17:36:33.289Z,12.60
2023-03-30T17:38:59.956Z,12.60
2023-03-30T17:41:26.721Z,12.50
2023-03-30T17:43:53.394Z,12.40
2023-03-30T17:46:20.658Z,12.30
2023-03-30T17:48:47.929Z,12.10
2023-03-30T17:51:14.632Z,11.90
2023-03-30T17:53:41.499Z,11.80
2023-03-30T17:56:11.588Z,11.80
2023-03-30T17:58:38.272Z,11.70
2023-03-30T18:01:07.757Z,11.60
2023-03-30T18:03:35.336Z,11.60
2023-03-30T18:06:02.591Z,11.50
2023-03-30T18:08:29.709Z,11.50
2023-03-30T18:10:58.882Z,11.40
2023-03-30T18:13:26.938Z,11.40
2023-03-30T18:15:55.563Z,11.40
2023-03-30T18:18:25.062Z,11.30
2023-03-30T18:20:59.313Z,11.30
2023-03-30T18:23:26.138Z,11.40
2023-03-30T18:25:52.860Z,11.30
2023-03-30T18:28:25.195Z,11.30
2023-03-30T18:30:55.120Z,11.30
2023-03-30T18:33:22.205Z,11.30
2023-03-30T18:35:51.002Z,11.40
2023-03-30T18:38:19.948Z,11.30
2023-03-30T18:40:49.398Z,11.30
2023-03-30T18:43:16.820Z,11.30
2023-03-30T18:45:46.359Z,11.40
2023-03-30T18:48:15.924Z,11.30
2023-03-30T18:50:48.159Z,11.20
2023-03-30T18:53:26.335Z,11.00
2023-03-30T18:55:57.024Z,10.90
2023-03-30T18:58:26.315Z,10.90
2023-03-30T19:00:54.220Z,10.90
2023-03-30T19:03:22.038Z,10.90
2023-03-30T19:05:49.915Z,10.90
2023-03-30T19:08:19.159Z,11.00
2023-03-30T19:10:48.209Z,11.00
2023-03-30T19:13:16.972Z,11.00
2023-03-30T19:15:44.914Z,11.00
2023-03-30T19:18:18.821Z,11.00
2023-03-30T19:20:45.957Z,10.90
2023-03-30T19:23:14.727Z,10.90
2023-03-30T19:25:43.321Z,10.90
2023-03-30T19:28:11.024Z,11.00
2023-03-30T19:30:39.591Z,11.00
2023-03-30T19:33:13.140Z,11.20
2023-03-30T19:35:41.241Z,11.20
2023-03-30T19:38:08.456Z,11.20
2023-03-30T19:40:40.354Z,11.10
2023-03-30T19:43:07.620Z,11.10
2023-03-30T19:45:34.371Z,11.10
2023-03-30T19:48:01.145Z,11.00
2023-03-30T19:50:30.006Z,11.00
2023-03-30T19:52:57.661Z,11.10
2023-03-30T19:55:24.334Z,11.10
2023-03-30T19:57:51.097Z,11.10
2023-03-30T20:00:18.735Z,11.10
2023-03-30T20:02:48.268Z,11.00
2023-03-30T20:05:15.817Z,11.00
2023-03-30T20:07:44.636Z,11.00
2023-03-30T20:10:15.017Z,10.90
2023-03-30T20:12:42.561Z,10.90
2023-03-30T20:15:09.803Z,10.90
2023-03-30T20:17:38.113Z,10.90
2023-03-30T20:20:09.028Z,10.90
2023-03-30T20:22:37.378Z,11.00
2023-03-30T20:25:07.289Z,11.00
2023-03-30T20:27:35.061Z,11.00
2023-03-30T20:30:02.250Z,11.00
2023-03-30T20:32:28.936Z,11.10
2023-03-30T20:34:55.617Z,11.10
2023-03-30T20:37:22.837Z,11.20
2023-03-30T20:39:50.454Z,11.20
2023-03-30T20:42:18.290Z,11.10
2023-03-30T20:44:50.012Z,10.90
2023-03-30T20:47:17.609Z,10.80
2023-03-30T20:49:46.216Z,10.80
2023-03-30T20:52:12.921Z,10.80
2023-03-30T20:54:41.082Z,10.70
2023-03-30T20:57:07.918Z,10.70
2023-03-30T20:59:34.629Z,10.70
2023-03-30T21:02:01.569Z,10.70
2023-03-30T21:04:28.769Z,10.60
2023-03-30T21:06:55.864Z,10.60
2023-03-30T21:09:22.563Z,10.70
2023-03-30T21:11:49.229Z,10.80
2023-03-30T21:14:16.141Z,10.80
2023-03-30T21:16:43.061Z,10.90
2023-03-30T21:19:10.319Z,10.90
2023-03-30T21:21:37.908Z,10.90
2023-03-30T21:24:06.142Z,10.90
2023-03-30T21:26:33.142Z,10.90
2023-03-30T21:29:00.845Z,11.00
2023-03-30T21:31:27.654Z,11.00
2023-03-30T21:33:54.288Z,11.00
2023-03-30T21:36:21.094Z,11.00
2023-03-30T21:38:47.893Z,10.90
2023-03-30T21:41:20.856Z,10.90
2023-03-30T21:43:48.091Z,10.90
2023-03-30T21:46:17.082Z,10.90
2023-03-30T21:48:45.830Z,10.90
2023-03-30T21:51:21.693Z,10.90
2023-03-30T21:53:51.027Z,11.00
2023-03-30T21:56:19.818Z,11.00
2023-03-30T21:58:46.467Z,11.00
2023-03-30T22:01:13.528Z,11.10
2023-03-30T22:03:42.254Z,11.10
2023-03-30T22:06:11.146Z,11.10
2023-03-30T22:08:37.936Z,11.10
2023-03-30T22:11:11.530Z,11.10
2023-03-30T22:13:38.202Z,11.00
2023-03-30T22:16:10.669Z,11.00
2023-03-30T22:18:37.339Z,10.80
2023-03-30T22:21:06.149Z,10.80
2023-03-30T22:23:33.272Z,10.70
2023-03-30T22:26:00.230Z,10.70
2023-03-30T22:28:27.122Z,10.70
2023-03-30T22:30:53.861Z,10.70
2023-03-30T22:33:20.601Z,10.70
2023-03-30T22:35:48.182Z,10.60
2023-03-30T22:38:16.383Z,10.70
2023-03-30T22:40:43.379Z,10.70
2023-03-30T22:43:11.641Z,10.70
2023-03-30T22:45:39.088Z,10.70
2023-03-30T22:48:06.290Z,10.80
2023-03-30T22:50:33.798Z,10.80
2023-03-30T22:53:00.820Z,10.90
2023-03-30T22:55:27.611Z,11.00
2023-03-30T22:57:56.502Z,11.00
2023-03-30T23:00:23.376Z,11.00
2023-03-30T23:02:50.771Z,11.00
2023-03-30T23:05:20.979Z,11.00
2023-03-30T23:07:48.887Z,11.10
2023-03-30T23:10:18.527Z,11.00
2023-03-30T23:12:46.071Z,11.00
2023-03-30T23:15:13.410Z,11.00
2023-03-30T23:17:40.352Z,10.90
2023-03-30T23:20:10.029Z,10.90
2023-03-30T23:22:37.903Z,11.00
2023-03-30T23:25:06.397Z,10.90
2023-03-30T23:27:36.929Z,10.80
2023-03-30T23:30:07.545Z,10.80
2023-03-30T23:32:35.290Z,10.70
2023-03-30T23:35:02.657Z,10.80
2023-03-30T23:37:30.174Z,10.70
2023-03-30T23:39:58.818Z,10.70
2023-03-30T23:42:25.730Z,10.60
2023-03-30T23:44:52.349Z,10.70
2023-03-30T23:47:19.149Z,10.70
2023-03-30T23:49:46.072Z,10.70
2023-03-30T23:52:12.693Z,10.70
2023-03-30T23:54:40.754Z,10.80
2023-03-30T23:57:08.157Z,10.80
2023-03-30T23:59:35.659Z,10.80
